Airfield :
LOGIN :

Register | Disclaimer

   EN    FR    IT 

 










Legend :    VFR   Marginal VFR   IFR   Intensive IFR   Very Intensive IFR
Visi :
Ceiling :
>= 8 km
>= 3000ft
5 to 8 km
1000 to 3000 ft
1500m to 5 km
500 to 1000 ft
800 to 1500m
200 to 500 ft
< 800m
< 200 ft
Symbols :   Thunderstorms  Fog  Heavy snow  Heavy precipitations  Wind > 20 kt
SIGMETs :     Misc.  Thunderstorms  Icing  Turbulence  Mountain Waves  Volcanic Ashes







- Airport Elevation : 1043 ft
- IATA code : SLD


LZSL - Sliac

CURRENT METAR :
  • 110700Z 01007KT 340V060 9999 BKN015 OVC027 M00/M01 Q1002

EXPIRED METARs :
  • 110630Z VRB04KT 9000 -SN OVC011 M00/M01 Q1002
  • 110600Z 01005KT 340V050 4900 -SN BR BKN007 OVC018 M01/M01 Q1002 RESN
  • 110530Z 01005KT 340V040 2000 SN BR BKN007 OVC017 M01/M02 Q1002
  • 110500Z 01006KT 330V040 4000 -SN BR BKN006 OVC018 M01/M01 Q1002
  • 110430Z 35005KT 310V030 2000 -SN BR OVC006 M01/M01 Q1002 RESN

TAF TAF LZSL
Valid from the 11 at 06:00 until the 11 at 15:00 UTC


110500Z 1106/1115 01005KT 6000 -SN SCT015 OVC023
TEMPO 1106/1112 1200 SN BKN004 OVC012
No reported NOTAMs for that airfield.



MET'MAP, your aeronautical weather chart ! - Copyright ORBIFLY December 2007 - Disclaimer

ORBIFLY MET'MAP TEAM :

Programming & Development : Alexandra Zaïnal
Concept & Development : Baudouin d'Aumeries
Co-Development & Prog : Marc-Olivier Méhu
Technical & hardware support : Manuel Goepfert

Contact : metmap@orbifly.com




SOURCES & CREDITS :

   NOAA